Altair Leader — 7JJJ — position and weather

sailwx.info

Track history (hours):
 
Tides and Currents Weather Stations Pressure Air Temp Water Temp Dewpoint Dewpoint Depression Visibility Wind Speed Wind Dir Waves Ship Positions

Altair Leader

Last reported at 2018-Feb-20 20:51 UTC. Time now 2018-Feb-21 01:48 UTC.
Position N 37°11' E 023°44'.

Length 199 m; draft 8.8 m.

Type: Cargo ship. MMSI: 432817000.

Date/timePositionNaut miles runAvg speedWind from/ knotsBaromVisibWave heightAir tempDewpointWater temp
2018-Feb-20 20:51N 37°11' E 023°44'1516.7
2018-Feb-20 19:57N 37°26' E 023°44'816.9
2018-Feb-20 19:30N 37°33' E 023°44'816.4
2018-Feb-20 19:00N 37°41' E 023°41'816.5
2018-Feb-20 18:30N 37°49' E 023°37'714.6
2018-Feb-20 18:00N 37°56' E 023°36'1 2.8
2018-Feb-20 17:30N 37°58' E 023°36'0 0.0
2018-Feb-20 17:00N 37°58' E 023°36'0 0.0
2018-Feb-20 16:30N 37°58' E 023°36'0 0.0
2018-Feb-20 16:00N 37°58' E 023°36'0 0.0
2018-Feb-20 15:30N 37°58' E 023°36'0 0.0
2018-Feb-20 15:00N 37°58' E 023°36'0 0.0
2018-Feb-20 14:30N 37°58' E 023°36'0 0.0
2018-Feb-20 14:00N 37°58' E 023°36'0 0.0
2018-Feb-20 13:30N 37°58' E 023°36'0 0.0
2018-Feb-20 13:00N 37°58' E 023°36'0 0.0
2018-Feb-20 12:30N 37°58' E 023°36'0 0.0
2018-Feb-20 12:00N 37°58' E 023°36'0 0.0
2018-Feb-20 11:30N 37°58' E 023°36'0 0.3
2018-Feb-20 11:00N 37°57' E 023°36'2 4.4
2018-Feb-20 10:30N 37°55' E 023°36'2 4.7
2018-Feb-20 10:00N 37°53' E 023°35'0 1.0
2018-Feb-20 09:30N 37°53' E 023°35'1 2.5
2018-Feb-20 09:00N 37°52' E 023°36'3 5.4
2018-Feb-20 08:30N 37°51' E 023°39'3 5.3
2018-Feb-20 08:00N 37°48' E 023°40'510.7
2018-Feb-20 07:30N 37°44' E 023°44'713.6
2018-Feb-20 07:01N 37°37' E 023°43'3 6.0
2018-Feb-20 06:30N 37°35' E 023°39'1 1.2
2018-Feb-20 06:00N 37°36' E 023°40'1 1.3
2018-Feb-20 05:30N 37°36' E 023°40'1 1.4
2018-Feb-20 05:00N 37°37' E 023°40'3 5.5
2018-Feb-20 04:30N 37°39' E 023°42'4 7.6
2018-Feb-20 04:00N 37°42' E 023°44'815.4
2018-Feb-20 03:31N 37°35' E 023°46'816.3
2018-Feb-20 03:00N 37°27' E 023°46'1316.2
2018-Feb-20 02:14N 37°14' E 023°46'416.3
2018-Feb-20 02:00N 37°10' E 023°46'  
Track history (hours):
 
Tides and Currents Weather Stations Pressure Air Temp Water Temp Dewpoint Dewpoint Depression Visibility Wind Speed Wind Dir Waves Ship Positions

Altair Leader

Last reported at 2018-Feb-20 20:51 UTC. Time now 2018-Feb-21 01:48 UTC.
Position N 37°11' E 023°44'.

Length 199 m; draft 8.8 m.

Type: Cargo ship. MMSI: 432817000.

Date/timePositionNaut miles runAvg speedWind from/ knotsBaromVisibWave heightAir tempDewpointWater temp
2018-Feb-20 20:51N 37°11' E 023°44'1516.7
2018-Feb-20 19:57N 37°26' E 023°44'816.9
2018-Feb-20 19:30N 37°33' E 023°44'816.4
2018-Feb-20 19:00N 37°41' E 023°41'816.5
2018-Feb-20 18:30N 37°49' E 023°37'714.6
2018-Feb-20 18:00N 37°56' E 023°36'1 2.8
2018-Feb-20 17:30N 37°58' E 023°36'0 0.0
2018-Feb-20 17:00N 37°58' E 023°36'0 0.0
2018-Feb-20 16:30N 37°58' E 023°36'0 0.0
2018-Feb-20 16:00N 37°58' E 023°36'0 0.0
2018-Feb-20 15:30N 37°58' E 023°36'0 0.0
2018-Feb-20 15:00N 37°58' E 023°36'0 0.0
2018-Feb-20 14:30N 37°58' E 023°36'0 0.0
2018-Feb-20 14:00N 37°58' E 023°36'0 0.0
2018-Feb-20 13:30N 37°58' E 023°36'0 0.0
2018-Feb-20 13:00N 37°58' E 023°36'0 0.0
2018-Feb-20 12:30N 37°58' E 023°36'0 0.0
2018-Feb-20 12:00N 37°58' E 023°36'0 0.0
2018-Feb-20 11:30N 37°58' E 023°36'0 0.3
2018-Feb-20 11:00N 37°57' E 023°36'2 4.4
2018-Feb-20 10:30N 37°55' E 023°36'2 4.7
2018-Feb-20 10:00N 37°53' E 023°35'0 1.0
2018-Feb-20 09:30N 37°53' E 023°35'1 2.5
2018-Feb-20 09:00N 37°52' E 023°36'3 5.4
2018-Feb-20 08:30N 37°51' E 023°39'3 5.3
2018-Feb-20 08:00N 37°48' E 023°40'510.7
2018-Feb-20 07:30N 37°44' E 023°44'713.6
2018-Feb-20 07:01N 37°37' E 023°43'3 6.0
2018-Feb-20 06:30N 37°35' E 023°39'1 1.2
2018-Feb-20 06:00N 37°36' E 023°40'1 1.3
2018-Feb-20 05:30N 37°36' E 023°40'1 1.4
2018-Feb-20 05:00N 37°37' E 023°40'3 5.5
2018-Feb-20 04:30N 37°39' E 023°42'4 7.6
2018-Feb-20 04:00N 37°42' E 023°44'815.4
2018-Feb-20 03:31N 37°35' E 023°46'816.3
2018-Feb-20 03:00N 37°27' E 023°46'1316.2
2018-Feb-20 02:14N 37°14' E 023°46'416.3
2018-Feb-20 02:00N 37°10' E 023°46'  

Dump ship's entire track history